createdAt,value
2019-01-14T00:00:53.315Z,999.26
2019-01-14T00:01:53.323Z,999.26
2019-01-14T00:02:53.335Z,999.32
2019-01-14T00:03:53.347Z,999.40
2019-01-14T00:04:55.608Z,999.32
2019-01-14T00:05:53.377Z,999.41
2019-01-14T00:06:53.391Z,999.34
2019-01-14T00:07:53.455Z,999.34
2019-01-14T00:08:53.415Z,999.34
2019-01-14T00:09:53.427Z,999.35
2019-01-14T00:10:53.436Z,999.34
2019-01-14T00:11:53.456Z,999.37
2019-01-14T00:12:53.501Z,999.42
2019-01-14T00:13:53.483Z,999.34
2019-01-14T00:14:53.506Z,999.33
2019-01-14T00:15:53.503Z,999.35
2019-01-14T00:16:54.596Z,999.33
2019-01-14T00:17:53.528Z,999.36
2019-01-14T00:18:53.567Z,999.37
2019-01-14T00:19:53.559Z,999.38
2019-01-14T00:20:53.579Z,999.35
2019-01-14T00:21:53.582Z,999.46
2019-01-14T00:22:53.596Z,999.48
2019-01-14T00:23:53.612Z,999.49
2019-01-14T00:24:53.625Z,999.46
2019-01-14T00:25:53.668Z,999.36
2019-01-14T00:26:53.660Z,999.28
2019-01-14T00:27:53.657Z,999.30
2019-01-14T00:28:53.674Z,999.24
2019-01-14T00:29:53.690Z,999.32
2019-01-14T00:30:53.696Z,999.55
2019-01-14T00:31:53.712Z,999.74
2019-01-14T00:32:53.727Z,999.87
2019-01-14T00:33:53.850Z,999.96
2019-01-14T00:34:53.746Z,999.89
2019-01-14T00:35:53.760Z,999.89
2019-01-14T00:36:53.785Z,999.89
2019-01-14T00:37:53.789Z,999.85
2019-01-14T00:38:53.802Z,999.81
2019-01-14T00:39:53.815Z,999.80
2019-01-14T00:40:53.827Z,999.84
2019-01-14T00:41:53.842Z,999.87
2019-01-14T00:42:53.867Z,999.91
2019-01-14T00:43:53.866Z,999.93
2019-01-14T00:44:53.882Z,999.90
2019-01-14T00:45:53.895Z,999.86
2019-01-14T00:46:53.909Z,999.90
2019-01-14T00:47:53.917Z,999.83
2019-01-14T00:48:53.931Z,999.86
2019-01-14T00:49:53.943Z,999.86
2019-01-14T00:50:53.956Z,999.88
2019-01-14T00:51:53.968Z,999.89
2019-01-14T00:52:53.977Z,999.93
2019-01-14T00:53:53.995Z,999.94
2019-01-14T00:54:54.006Z,999.95
2019-01-14T00:55:54.021Z,999.94
2019-01-14T00:56:54.031Z,999.94
2019-01-14T00:57:54.049Z,999.96
2019-01-14T00:58:54.062Z,999.94
2019-01-14T00:59:54.108Z,1000.05
2019-01-14T01:00:54.085Z,1000.06
2019-01-14T01:01:54.098Z,1000.05
2019-01-14T01:02:54.108Z,1000.06
2019-01-14T01:03:54.128Z,1000.10
2019-01-14T01:04:54.149Z,1000.08
2019-01-14T01:05:54.146Z,1000.10
2019-01-14T01:06:54.172Z,1000.12
2019-01-14T01:07:54.173Z,1000.11
2019-01-14T01:08:54.247Z,1000.14
2019-01-14T01:09:54.217Z,1000.11
2019-01-14T01:10:54.208Z,1000.14
2019-01-14T01:11:54.226Z,1000.19
2019-01-14T01:12:54.251Z,1000.17
2019-01-14T01:13:54.252Z,1000.16
2019-01-14T01:14:54.261Z,1000.14
2019-01-14T01:15:54.279Z,1000.27
2019-01-14T01:16:54.289Z,1000.23
2019-01-14T01:17:54.298Z,1000.31
2019-01-14T01:18:54.310Z,1000.28
2019-01-14T01:19:54.326Z,1000.31
2019-01-14T01:20:54.338Z,1000.38
2019-01-14T01:21:54.355Z,1000.38
2019-01-14T01:22:54.364Z,1000.29
2019-01-14T01:23:54.373Z,1000.34
2019-01-14T01:24:54.385Z,1000.38
2019-01-14T01:25:54.409Z,1000.39
2019-01-14T01:26:54.419Z,1000.44
2019-01-14T01:27:54.428Z,1000.40
2019-01-14T01:28:54.438Z,1000.41
2019-01-14T01:29:54.450Z,1000.45
2019-01-14T01:30:54.470Z,1000.43
2019-01-14T01:31:54.481Z,1000.48
2019-01-14T01:32:54.491Z,1000.47
2019-01-14T01:33:54.508Z,1000.51
2019-01-14T01:34:54.517Z,1000.49
2019-01-14T01:35:54.533Z,1000.48
2019-01-14T01:36:54.546Z,1000.51
2019-01-14T01:37:54.551Z,1000.50
2019-01-14T01:38:54.594Z,1000.51
2019-01-14T01:39:54.597Z,1000.51
2019-01-14T01:40:54.593Z,1000.48
2019-01-14T01:41:54.611Z,1000.53
2019-01-14T01:42:54.615Z,1000.51
2019-01-14T01:43:54.632Z,1000.49
2019-01-14T01:44:54.651Z,1000.60
2019-01-14T01:45:54.651Z,1000.55
2019-01-14T01:46:54.666Z,1000.57
2019-01-14T01:47:54.686Z,1000.59
2019-01-14T01:48:54.691Z,1000.63
2019-01-14T01:49:54.743Z,1000.62
2019-01-14T01:50:54.721Z,1000.65
2019-01-14T01:51:54.733Z,1000.69
2019-01-14T01:52:54.747Z,1000.61
2019-01-14T01:53:54.756Z,1000.67
2019-01-14T01:54:54.772Z,1000.63
2019-01-14T01:55:54.782Z,1000.65
2019-01-14T01:56:54.798Z,1000.65
2019-01-14T01:57:54.844Z,1000.59
2019-01-14T01:58:54.818Z,1000.71
2019-01-14T01:59:54.835Z,1000.66
2019-01-14T02:00:54.845Z,1000.74
2019-01-14T02:01:54.865Z,1000.75
2019-01-14T02:02:54.870Z,1000.76
2019-01-14T02:03:54.911Z,1000.80
2019-01-14T02:04:54.897Z,1000.81
2019-01-14T02:05:54.911Z,1000.83
2019-01-14T02:06:54.918Z,1000.81
2019-01-14T02:07:54.933Z,1000.85
2019-01-14T02:08:54.948Z,1000.84
2019-01-14T02:09:54.959Z,1000.90
2019-01-14T02:10:54.969Z,1000.92
2019-01-14T02:11:54.988Z,1000.97
2019-01-14T02:12:54.997Z,1000.95
2019-01-14T02:13:55.009Z,1000.98
2019-01-14T02:14:55.022Z,1000.98
2019-01-14T02:15:55.057Z,1001.02
2019-01-14T02:16:55.047Z,1001.04
2019-01-14T02:17:55.066Z,1001.03
2019-01-14T02:18:55.072Z,1001.01
2019-01-14T02:19:55.086Z,1001.10
2019-01-14T02:20:55.099Z,1001.04
2019-01-14T02:21:55.109Z,1001.10
2019-01-14T02:22:56.242Z,1001.12
2019-01-14T02:23:55.144Z,1001.07
2019-01-14T02:24:55.148Z,1001.12
2019-01-14T02:25:55.164Z,1001.16
2019-01-14T02:26:55.172Z,1001.26
2019-01-14T02:27:55.184Z,1001.29
2019-01-14T02:28:55.206Z,1001.34
2019-01-14T02:29:55.210Z,1001.31
2019-01-14T02:30:55.222Z,1001.30
2019-01-14T02:31:55.237Z,1001.28
2019-01-14T02:32:55.252Z,1001.31
2019-01-14T02:33:55.267Z,1001.29
2019-01-14T02:34:55.277Z,1001.38
2019-01-14T02:35:55.292Z,1001.39
2019-01-14T02:36:55.300Z,1001.42
2019-01-14T02:37:55.315Z,1001.41
2019-01-14T02:38:55.330Z,1001.48
2019-01-14T02:39:55.364Z,1001.49
2019-01-14T02:40:55.351Z,1001.53
2019-01-14T02:41:55.363Z,1001.53
2019-01-14T02:42:55.380Z,1001.57
2019-01-14T02:43:55.396Z,1001.63
2019-01-14T02:44:55.404Z,1001.67
2019-01-14T02:45:55.420Z,1001.52
2019-01-14T02:46:55.428Z,1001.63
2019-01-14T02:47:55.444Z,1001.62
2019-01-14T02:48:55.481Z,1001.70
2019-01-14T02:49:55.467Z,1001.64
2019-01-14T02:50:55.477Z,1001.67
2019-01-14T02:51:55.491Z,1001.67
2019-01-14T02:52:55.511Z,1001.66
2019-01-14T02:53:55.518Z,1001.67
2019-01-14T02:54:55.535Z,1001.61
2019-01-14T02:55:55.542Z,1001.61
2019-01-14T02:56:55.556Z,1001.62
2019-01-14T02:57:55.570Z,1001.65
2019-01-14T02:58:55.586Z,1001.74
2019-01-14T02:59:56.119Z,1001.71
2019-01-14T03:00:55.609Z,1001.63
2019-01-14T03:01:55.626Z,1001.77
2019-01-14T03:02:55.634Z,1001.85
2019-01-14T03:03:55.647Z,1001.81
2019-01-14T03:04:55.677Z,1001.81
2019-01-14T03:05:55.681Z,1001.77
2019-01-14T03:06:57.998Z,1001.74
2019-01-14T03:07:55.697Z,1001.72
2019-01-14T03:08:55.712Z,1001.77
2019-01-14T03:38:19.022Z,1001.82
2019-01-14T03:39:19.000Z,1001.85
2019-01-14T03:41:10.909Z,1001.87
2019-01-14T03:42:10.910Z,1001.86
2019-01-14T03:44:02.803Z,1001.86
2019-01-14T03:45:02.799Z,1001.90
2019-01-14T03:46:54.731Z,1001.91
2019-01-14T03:47:54.716Z,1001.91
2019-01-14T03:49:47.113Z,1002.02
2019-01-14T03:50:47.113Z,1002.01
2019-01-14T03:52:39.099Z,1002.08
2019-01-14T03:53:39.028Z,1002.08
2019-01-14T03:55:30.975Z,1002.13
2019-01-14T03:56:30.940Z,1002.13
2019-01-14T03:58:22.846Z,1002.18
2019-01-14T03:59:22.854Z,1002.13
2019-01-14T04:01:15.272Z,1002.13
2019-01-14T04:02:15.256Z,1002.13
2019-01-14T04:04:07.161Z,1002.19
2019-01-14T04:05:07.178Z,1002.27
2019-01-14T04:06:59.095Z,1002.31
2019-01-14T04:07:59.078Z,1002.33
2019-01-14T04:09:50.976Z,1002.42
2019-01-14T04:10:50.986Z,1002.35
2019-01-14T04:12:42.924Z,1002.39
2019-01-14T04:13:42.915Z,1002.37
2019-01-14T04:15:34.838Z,1002.39
2019-01-14T04:16:34.853Z,1002.39
2019-01-14T04:18:26.787Z,1002.43
2019-01-14T04:19:26.764Z,1002.46
2019-01-14T04:21:19.195Z,1002.52
2019-01-14T04:22:19.182Z,1002.46
2019-01-14T04:24:11.117Z,1002.40
2019-01-14T04:25:11.095Z,1002.44
2019-01-14T04:27:03.024Z,1002.49
2019-01-14T04:28:03.002Z,1002.46
2019-01-14T04:29:56.430Z,1002.50
2019-01-14T04:30:56.429Z,1002.52
2019-01-14T04:32:48.875Z,1002.57
2019-01-14T04:33:48.866Z,1002.58
2019-01-14T04:35:40.756Z,1002.60
2019-01-14T04:36:40.756Z,1002.63
2019-01-14T04:38:32.687Z,1002.59
2019-01-14T04:39:32.673Z,1002.60
2019-01-14T04:41:24.582Z,1002.59
2019-01-14T04:42:24.589Z,1002.54
2019-01-14T04:44:16.512Z,1002.54
2019-01-14T04:45:16.498Z,1002.56
2019-01-14T04:47:08.411Z,1002.55
2019-01-14T04:48:08.442Z,1002.53
2019-01-14T04:50:00.354Z,1002.56
2019-01-14T04:51:00.330Z,1002.51
2019-01-14T04:52:52.259Z,1002.58
2019-01-14T04:53:52.241Z,1002.57
2019-01-14T04:55:44.641Z,1002.63
2019-01-14T04:56:44.648Z,1002.61
2019-01-14T04:58:36.570Z,1002.63
2019-01-14T04:59:36.562Z,1002.67
2019-01-14T05:01:28.969Z,1002.71
2019-01-14T05:02:28.972Z,1002.74
2019-01-14T05:04:21.380Z,1002.76
2019-01-14T05:05:21.376Z,1002.77
2019-01-14T05:07:13.297Z,1002.79
2019-01-14T05:08:13.288Z,1002.78
2019-01-14T05:10:06.710Z,1002.79
2019-01-14T05:11:06.692Z,1002.83
2019-01-14T05:12:58.637Z,1002.84
2019-01-14T05:13:58.605Z,1002.83
2019-01-14T05:15:50.511Z,1002.85
2019-01-14T05:16:50.532Z,1002.86
2019-01-14T05:18:42.936Z,1002.88
2019-01-14T05:19:42.930Z,1002.85
2019-01-14T05:21:34.833Z,1002.86
2019-01-14T05:22:34.863Z,1002.86
2019-01-14T05:24:26.765Z,1002.86
2019-01-14T05:25:26.751Z,1002.86
2019-01-14T05:27:18.659Z,1002.86
2019-01-14T05:28:18.661Z,1002.80
2019-01-14T05:30:10.602Z,1002.87
2019-01-14T05:31:10.583Z,1002.94
2019-01-14T05:33:02.491Z,1002.99
2019-01-14T05:34:02.497Z,1003.00
2019-01-14T05:35:54.429Z,1003.01
2019-01-14T05:36:54.429Z,1003.02
2019-01-14T05:38:47.809Z,1003.06
2019-01-14T05:39:47.829Z,1003.11
2019-01-14T05:41:39.740Z,1003.11
2019-01-14T05:42:39.743Z,1003.15
2019-01-14T05:44:31.648Z,1003.28
2019-01-14T05:45:31.632Z,1003.24
2019-01-14T05:47:23.558Z,1003.23
2019-01-14T05:48:23.563Z,1003.26
2019-01-14T05:50:15.997Z,1003.22
2019-01-14T05:51:15.965Z,1003.16
2019-01-14T05:53:07.926Z,1003.29
2019-01-14T05:54:07.883Z,1003.23
2019-01-14T05:55:59.799Z,1003.32
2019-01-14T05:56:59.794Z,1003.28
2019-01-14T05:58:51.696Z,1003.30
2019-01-14T05:59:51.699Z,1003.31
2019-01-14T06:01:43.643Z,1003.36
2019-01-14T06:02:43.647Z,1003.38
2019-01-14T06:04:35.549Z,1003.40
2019-01-14T06:05:35.554Z,1003.40
2019-01-14T06:07:27.518Z,1003.47
2019-01-14T06:08:27.462Z,1003.51
2019-01-14T06:10:19.408Z,1003.52
2019-01-14T06:11:19.397Z,1003.56
2019-01-14T06:13:11.596Z,1003.58
2019-01-14T06:14:11.577Z,1003.54
2019-01-14T06:15:11.563Z,1003.59
2019-01-14T06:16:11.564Z,1003.58
2019-01-14T06:17:11.577Z,1003.62
2019-01-14T06:18:11.585Z,1003.59
2019-01-14T06:19:12.397Z,1003.55
2019-01-14T06:20:11.669Z,1003.51
2019-01-14T06:21:11.618Z,1003.52
2019-01-14T06:22:11.632Z,1003.48
2019-01-14T06:23:11.652Z,1003.48
2019-01-14T06:24:11.658Z,1003.51
2019-01-14T06:25:11.686Z,1003.47
2019-01-14T06:26:11.681Z,1003.44
2019-01-14T06:27:11.694Z,1003.49
2019-01-14T06:28:11.708Z,1003.52
2019-01-14T06:29:11.726Z,1003.50
2019-01-14T06:30:11.730Z,1003.58
2019-01-14T06:31:11.825Z,1003.62
2019-01-14T06:32:11.758Z,1003.63
2019-01-14T06:33:11.810Z,1003.66
2019-01-14T06:34:11.780Z,1003.63
2019-01-14T06:35:11.799Z,1003.57
2019-01-14T06:36:11.810Z,1003.63
2019-01-14T06:37:11.825Z,1003.69
2019-01-14T06:38:11.832Z,1003.69
2019-01-14T06:39:11.847Z,1003.69
2019-01-14T06:40:11.862Z,1003.67
2019-01-14T06:41:11.869Z,1003.68
2019-01-14T06:42:11.897Z,1003.69
2019-01-14T06:43:11.895Z,1003.73
2019-01-14T06:44:11.904Z,1003.79
2019-01-14T06:45:11.922Z,1003.84
2019-01-14T06:46:11.940Z,1003.81
2019-01-14T06:47:11.952Z,1003.84
2019-01-14T06:48:11.960Z,1003.81
2019-01-14T06:49:12.074Z,1003.85
2019-01-14T06:50:12.011Z,1003.86
2019-01-14T06:51:12.006Z,1003.90
2019-01-14T06:52:12.008Z,1003.92
2019-01-14T06:53:12.029Z,1003.94
2019-01-14T06:54:12.093Z,1003.99
2019-01-14T06:55:12.102Z,1003.93
2019-01-14T06:56:12.080Z,1004.01
2019-01-14T06:57:12.108Z,1004.00
2019-01-14T06:58:12.089Z,1003.96
2019-01-14T06:59:12.108Z,1004.04
2019-01-14T07:00:12.106Z,1004.07
2019-01-14T07:01:12.136Z,1004.10
2019-01-14T07:02:12.139Z,1004.08
2019-01-14T07:03:12.144Z,1004.14
2019-01-14T07:04:12.204Z,1004.14
2019-01-14T07:05:12.174Z,1004.12
2019-01-14T07:06:12.220Z,1004.18
2019-01-14T07:07:12.237Z,1004.16
2019-01-14T07:08:12.224Z,1004.15
2019-01-14T07:09:12.227Z,1004.17
2019-01-14T07:10:12.237Z,1004.24
2019-01-14T07:11:12.253Z,1004.20
2019-01-14T07:12:12.268Z,1004.24
2019-01-14T07:13:12.267Z,1004.23
2019-01-14T07:14:12.287Z,1004.26
2019-01-14T07:15:12.299Z,1004.26
2019-01-14T07:16:12.312Z,1004.32
2019-01-14T07:17:12.325Z,1004.35
2019-01-14T07:18:12.335Z,1004.36
2019-01-14T07:19:12.341Z,1004.43
2019-01-14T07:20:12.370Z,1004.48
2019-01-14T07:21:12.377Z,1004.50
2019-01-14T07:22:12.399Z,1004.44
2019-01-14T07:23:12.412Z,1004.47
2019-01-14T07:24:12.411Z,1004.53
2019-01-14T07:25:12.454Z,1004.50
2019-01-14T07:26:12.441Z,1004.48
2019-01-14T07:27:12.448Z,1004.54
2019-01-14T07:28:12.468Z,1004.53
2019-01-14T07:29:12.477Z,1004.53
2019-01-14T07:30:12.488Z,1004.52
2019-01-14T07:31:13.279Z,1004.53
2019-01-14T07:32:12.519Z,1004.55
2019-01-14T07:33:12.570Z,1004.55
2019-01-14T07:34:12.666Z,1004.53
2019-01-14T07:35:13.281Z,1004.56
2019-01-14T07:36:12.779Z,1004.57
2019-01-14T07:37:13.053Z,1004.64
2019-01-14T07:38:12.669Z,1004.68
2019-01-14T07:39:12.699Z,1004.65
2019-01-14T07:40:12.796Z,1004.70
2019-01-14T07:41:12.624Z,1004.75
2019-01-14T07:42:12.965Z,1004.70
2019-01-14T07:43:12.825Z,1004.68
2019-01-14T07:44:12.768Z,1004.76
2019-01-14T07:45:12.677Z,1004.86
2019-01-14T07:46:12.696Z,1004.81
2019-01-14T07:47:12.704Z,1004.85
2019-01-14T07:48:12.712Z,1004.92
2019-01-14T07:49:12.726Z,1004.91
2019-01-14T07:50:12.735Z,1004.94
2019-01-14T07:51:12.755Z,1004.99
2019-01-14T07:52:12.768Z,1005.04
2019-01-14T07:53:12.789Z,1005.02
2019-01-14T07:54:12.788Z,1005.06
2019-01-14T07:55:12.792Z,1005.06
2019-01-14T07:56:12.809Z,1005.08
2019-01-14T07:57:12.829Z,1005.09
2019-01-14T07:58:12.833Z,1005.09
2019-01-14T07:59:12.882Z,1005.11
2019-01-14T08:00:12.869Z,1005.13
2019-01-14T08:01:12.876Z,1005.22
2019-01-14T08:02:12.890Z,1005.24
2019-01-14T08:03:12.902Z,1005.24
2019-01-14T08:04:12.917Z,1005.31
2019-01-14T08:05:12.976Z,1005.35
2019-01-14T08:06:12.937Z,1005.33
2019-01-14T08:07:12.948Z,1005.39
2019-01-14T08:08:14.235Z,1005.40
2019-01-14T08:09:12.982Z,1005.43
2019-01-14T08:10:12.990Z,1005.45
2019-01-14T08:11:13.009Z,1005.44
2019-01-14T08:12:13.023Z,1005.50
2019-01-14T08:13:13.042Z,1005.53
2019-01-14T08:14:14.239Z,1005.52
2019-01-14T08:15:13.048Z,1005.57
2019-01-14T08:16:13.072Z,1005.51
2019-01-14T08:17:13.072Z,1005.60
2019-01-14T08:18:13.080Z,1005.77
2019-01-14T08:19:13.123Z,1005.94
2019-01-14T08:20:13.115Z,1006.00
2019-01-14T08:21:13.134Z,1005.95
2019-01-14T08:22:13.136Z,1005.95
2019-01-14T08:23:13.150Z,1005.98
2019-01-14T08:24:13.168Z,1006.08
2019-01-14T08:25:13.175Z,1006.05
2019-01-14T08:26:13.183Z,1006.06
2019-01-14T08:27:13.201Z,1006.06
2019-01-14T08:28:13.221Z,1006.03
2019-01-14T08:29:13.226Z,1006.10
2019-01-14T08:30:13.250Z,1006.08
2019-01-14T08:31:13.327Z,1006.21
2019-01-14T08:32:13.270Z,1006.25
2019-01-14T08:33:13.288Z,1006.28
2019-01-14T08:34:13.341Z,1006.37
2019-01-14T08:35:13.310Z,1006.38
2019-01-14T08:36:13.335Z,1006.41
2019-01-14T08:37:13.361Z,1006.53
2019-01-14T08:38:13.332Z,1006.50
2019-01-14T08:39:13.356Z,1006.45
2019-01-14T08:40:13.359Z,1006.50
2019-01-14T08:41:13.370Z,1006.47
2019-01-14T08:42:13.420Z,1006.51
2019-01-14T08:43:13.574Z,1006.55
2019-01-14T08:44:13.766Z,1006.55
2019-01-14T08:45:13.521Z,1006.61
2019-01-14T08:46:13.432Z,1006.69
2019-01-14T08:47:13.449Z,1006.67
2019-01-14T08:48:13.591Z,1006.65
2019-01-14T08:49:13.698Z,1006.71
2019-01-14T08:50:13.589Z,1006.71
2019-01-14T08:51:14.331Z,1006.73
2019-01-14T08:52:13.665Z,1006.73
2019-01-14T08:53:13.764Z,1006.74
2019-01-14T08:54:13.563Z,1006.73
2019-01-14T08:55:13.770Z,1006.72
2019-01-14T08:56:14.755Z,1006.73
2019-01-14T08:57:13.575Z,1006.69
2019-01-14T08:58:13.789Z,1006.67
2019-01-14T08:59:14.856Z,1006.67
2019-01-14T09:00:13.846Z,1006.68
2019-01-14T09:01:13.666Z,1006.61
2019-01-14T09:02:13.627Z,1006.59
2019-01-14T09:03:13.661Z,1006.62
2019-01-14T09:04:13.645Z,1006.57
2019-01-14T09:05:13.654Z,1006.67
2019-01-14T09:06:13.808Z,1006.65
2019-01-14T09:07:13.689Z,1006.66
2019-01-14T09:08:13.689Z,1006.67
2019-01-14T09:09:14.006Z,1006.67
2019-01-14T09:10:13.724Z,1006.67
2019-01-14T09:11:13.720Z,1006.75
2019-01-14T09:12:13.853Z,1006.72
2019-01-14T09:13:13.744Z,1006.75
2019-01-14T09:14:13.758Z,1006.70
2019-01-14T09:15:13.779Z,1006.72
2019-01-14T09:16:13.785Z,1006.78
2019-01-14T09:17:13.819Z,1006.74
2019-01-14T09:18:13.825Z,1006.74
2019-01-14T09:19:13.832Z,1006.75
2019-01-14T09:20:13.875Z,1006.75
2019-01-14T09:21:13.917Z,1006.73
2019-01-14T09:22:13.877Z,1006.76
2019-01-14T09:23:13.888Z,1006.76
2019-01-14T09:24:13.880Z,1006.77
2019-01-14T09:25:13.891Z,1006.80
2019-01-14T09:26:13.899Z,1006.84
2019-01-14T09:27:13.914Z,1006.83
2019-01-14T09:28:13.927Z,1006.89
2019-01-14T09:29:13.939Z,1006.93
2019-01-14T09:30:13.956Z,1006.92
2019-01-14T09:31:13.968Z,1006.93
2019-01-14T09:32:13.973Z,1006.92
2019-01-14T09:33:13.986Z,1006.86
2019-01-14T09:34:14.001Z,1006.89
2019-01-14T09:35:14.027Z,1006.89
2019-01-14T09:36:14.020Z,1006.95
2019-01-14T09:37:14.032Z,1007.00
2019-01-14T09:38:14.052Z,1007.00
2019-01-14T09:39:14.062Z,1007.04
2019-01-14T09:40:14.087Z,1007.07
2019-01-14T09:41:14.091Z,1007.10
2019-01-14T09:42:14.103Z,1007.11
2019-01-14T09:43:14.121Z,1007.15
2019-01-14T09:44:14.120Z,1007.14
2019-01-14T09:45:14.155Z,1007.18
2019-01-14T09:46:14.191Z,1007.17
2019-01-14T09:47:14.159Z,1007.18
2019-01-14T09:48:14.173Z,1007.23
2019-01-14T09:49:14.202Z,1007.23
2019-01-14T09:50:14.202Z,1007.24
2019-01-14T09:51:14.211Z,1007.25
2019-01-14T09:52:14.224Z,1007.23
2019-01-14T09:53:14.247Z,1007.26
2019-01-14T09:54:14.240Z,1007.27
2019-01-14T09:55:14.257Z,1007.24
2019-01-14T09:56:14.264Z,1007.33
2019-01-14T09:57:14.275Z,1007.23
2019-01-14T09:58:14.291Z,1007.36
2019-01-14T09:59:14.305Z,1007.33
2019-01-14T10:00:14.322Z,1007.30
2019-01-14T10:01:14.345Z,1007.29
2019-01-14T10:02:14.347Z,1007.28
2019-01-14T10:03:14.356Z,1007.32
2019-01-14T10:04:14.371Z,1007.32
2019-01-14T10:05:14.383Z,1007.34
2019-01-14T10:06:14.428Z,1007.33
2019-01-14T10:07:14.414Z,1007.34
2019-01-14T10:08:14.423Z,1007.36
2019-01-14T10:09:14.436Z,1007.36
2019-01-14T10:10:14.442Z,1007.42
2019-01-14T10:11:14.512Z,1007.43
2019-01-14T10:12:14.478Z,1007.43
2019-01-14T10:13:14.483Z,1007.41
2019-01-14T10:14:14.496Z,1007.39
2019-01-14T10:15:14.504Z,1007.40
2019-01-14T10:16:14.509Z,1007.47
2019-01-14T10:17:14.522Z,1007.50
2019-01-14T10:18:14.537Z,1007.47
2019-01-14T10:19:14.554Z,1007.51
2019-01-14T10:20:14.557Z,1007.52
2019-01-14T10:21:14.587Z,1007.51
2019-01-14T10:22:14.590Z,1007.57
2019-01-14T10:23:14.599Z,1007.56
2019-01-14T10:24:14.612Z,1007.57
2019-01-14T10:25:14.633Z,1007.55
2019-01-14T10:26:16.172Z,1007.56
2019-01-14T10:27:14.653Z,1007.61
2019-01-14T10:28:14.666Z,1007.58
2019-01-14T10:29:14.676Z,1007.61
2019-01-14T10:30:14.709Z,1007.60
2019-01-14T10:31:14.723Z,1007.63
2019-01-14T10:32:14.708Z,1007.67
2019-01-14T10:33:14.738Z,1007.63
2019-01-14T10:34:14.830Z,1007.68
2019-01-14T10:35:14.984Z,1007.74
2019-01-14T10:36:17.670Z,1007.74
2019-01-14T10:37:14.787Z,1007.79
2019-01-14T10:38:14.825Z,1007.80
2019-01-14T10:39:14.925Z,1007.81
2019-01-14T10:40:15.069Z,1007.88
2019-01-14T10:41:14.826Z,1008.08
2019-01-14T10:42:14.831Z,1008.19
2019-01-14T10:43:14.847Z,1008.18
2019-01-14T10:44:14.857Z,1008.30
2019-01-14T10:45:14.889Z,1008.17
2019-01-14T10:46:14.892Z,1008.18
2019-01-14T10:47:14.904Z,1008.23
2019-01-14T10:48:14.918Z,1008.19
2019-01-14T10:49:14.927Z,1008.22
2019-01-14T10:50:14.989Z,1008.21
2019-01-14T10:51:14.966Z,1008.16
2019-01-14T10:52:14.968Z,1008.17
2019-01-14T10:53:14.970Z,1008.21
2019-01-14T10:54:14.981Z,1008.16
2019-01-14T10:55:14.998Z,1008.23
2019-01-14T10:56:15.022Z,1008.16
2019-01-14T10:57:15.026Z,1008.15
2019-01-14T10:58:15.036Z,1008.22
2019-01-14T10:59:15.041Z,1008.13
2019-01-14T11:00:15.055Z,1008.19
2019-01-14T11:01:15.068Z,1008.15
2019-01-14T11:02:15.087Z,1008.12
2019-01-14T11:03:15.279Z,1008.07
2019-01-14T11:05:15.221Z,1008.09
2019-01-14T11:06:15.220Z,1008.14
2019-01-14T11:07:15.285Z,1008.18
2019-01-14T11:08:15.422Z,1008.19
2019-01-14T11:09:15.381Z,1008.19
2019-01-14T11:10:15.279Z,1008.21
2019-01-14T11:11:36.491Z,1008.14
2019-01-14T11:12:15.245Z,1008.11
2019-01-14T11:13:15.443Z,1008.18
2019-01-14T11:14:15.291Z,1008.23
2019-01-14T11:15:15.323Z,1008.24
2019-01-14T11:16:15.301Z,1008.24
2019-01-14T11:17:36.671Z,1008.29
2019-01-14T11:18:15.445Z,1008.31
2019-01-14T11:19:15.514Z,1008.32
2019-01-14T11:20:15.583Z,1008.35
2019-01-14T11:21:15.405Z,1008.34
2019-01-14T11:22:15.486Z,1008.30
2019-01-14T11:23:36.549Z,1008.34
2019-01-14T11:24:15.398Z,1008.28
2019-01-14T11:25:15.558Z,1008.34
2019-01-14T11:26:16.415Z,1008.33
2019-01-14T11:27:15.444Z,1008.26
2019-01-14T11:28:15.455Z,1008.28
2019-01-14T11:29:36.553Z,1008.24
2019-01-14T11:30:15.501Z,1008.21
2019-01-14T11:31:17.043Z,1008.27
2019-01-14T11:33:15.623Z,1008.27
2019-01-14T11:34:15.850Z,1008.27
2019-01-14T11:35:37.078Z,1008.26
2019-01-14T11:36:15.785Z,1008.30
2019-01-14T11:37:15.691Z,1008.31
2019-01-14T11:38:36.680Z,1008.33
2019-01-14T11:39:15.801Z,1008.36
2019-01-14T11:40:36.759Z,1008.36
2019-01-14T11:41:15.699Z,1008.33
2019-01-14T11:42:15.785Z,1008.35
2019-01-14T11:43:36.741Z,1008.36
2019-01-14T11:44:15.744Z,1008.38
2019-01-14T11:45:36.749Z,1008.35
2019-01-14T11:46:15.763Z,1008.38
2019-01-14T11:47:15.879Z,1008.37
2019-01-14T11:48:36.821Z,1008.34
2019-01-14T11:49:15.807Z,1008.28
2019-01-14T11:50:36.825Z,1008.27
2019-01-14T11:51:15.808Z,1008.28
2019-01-14T11:52:15.838Z,1008.35
2019-01-14T11:53:37.087Z,1008.30
2019-01-14T11:54:15.888Z,1008.33
2019-01-14T11:55:36.971Z,1008.37
2019-01-14T11:56:16.214Z,1008.36
2019-01-14T11:57:15.917Z,1008.32
2019-01-14T11:58:37.070Z,1008.32
2019-01-14T11:59:16.540Z,1008.34
2019-01-14T12:00:37.105Z,1008.21
2019-01-14T12:01:15.928Z,1008.31
2019-01-14T12:02:16.046Z,1008.31
2019-01-14T12:03:37.038Z,1008.34
2019-01-14T12:04:16.031Z,1008.34
2019-01-14T12:05:36.999Z,1008.31
2019-01-14T12:06:16.018Z,1008.35
2019-01-14T12:07:16.018Z,1008.38
2019-01-14T12:08:37.026Z,1008.35
2019-01-14T12:09:16.168Z,1008.37
2019-01-14T12:10:37.130Z,1008.46
2019-01-14T12:11:16.217Z,1008.47
2019-01-14T12:12:16.133Z,1008.52
2019-01-14T12:13:37.131Z,1008.50
2019-01-14T12:14:16.315Z,1008.52
2019-01-14T12:15:37.175Z,1008.50
2019-01-14T12:16:16.129Z,1008.59
2019-01-14T12:17:16.240Z,1008.62
2019-01-14T12:18:37.268Z,1008.61
2019-01-14T12:19:16.169Z,1008.57
2019-01-14T12:20:37.167Z,1008.56
2019-01-14T12:21:16.180Z,1008.55
2019-01-14T12:22:16.267Z,1008.60
2019-01-14T12:23:37.273Z,1008.63
2019-01-14T12:24:17.038Z,1008.60
2019-01-14T12:25:37.351Z,1008.64
2019-01-14T12:26:16.245Z,1008.59
2019-01-14T12:27:16.255Z,1008.64
2019-01-14T12:28:37.284Z,1008.64
2019-01-14T12:29:16.303Z,1008.65
2019-01-14T12:30:37.304Z,1008.67
2019-01-14T12:31:16.320Z,1008.57
2019-01-14T12:32:16.327Z,1008.60
2019-01-14T12:33:37.500Z,1008.61
2019-01-14T12:34:16.338Z,1008.72
2019-01-14T12:35:37.378Z,1008.79
2019-01-14T12:36:16.395Z,1008.87
2019-01-14T12:37:16.397Z,1008.88
2019-01-14T12:38:37.411Z,1008.92
2019-01-14T12:39:19.574Z,1008.89
2019-01-14T12:40:37.490Z,1008.93
2019-01-14T12:41:16.431Z,1009.00
2019-01-14T12:42:16.510Z,1009.01
2019-01-14T12:43:37.465Z,1008.97
2019-01-14T12:44:16.618Z,1008.93
2019-01-14T12:45:37.518Z,1008.87
2019-01-14T12:46:17.304Z,1008.81
2019-01-14T12:47:16.537Z,1008.85
2019-01-14T12:48:37.828Z,1008.88
2019-01-14T12:49:16.551Z,1008.89
2019-01-14T12:50:37.638Z,1008.88
2019-01-14T12:51:16.599Z,1008.89
2019-01-14T12:52:16.599Z,1008.92
2019-01-14T12:53:37.645Z,1008.92
2019-01-14T12:54:16.631Z,1008.87
2019-01-14T12:55:37.631Z,1008.88
2019-01-14T12:56:16.625Z,1008.92
2019-01-14T12:57:16.682Z,1008.99
2019-01-14T12:58:37.698Z,1008.96
2019-01-14T12:59:16.670Z,1009.04
2019-01-14T13:00:37.825Z,1009.06
2019-01-14T13:01:16.676Z,1009.06
2019-01-14T13:02:16.747Z,1009.07
2019-01-14T13:03:37.817Z,1009.01
2019-01-14T13:04:16.735Z,1009.12
2019-01-14T13:05:37.765Z,1009.08
2019-01-14T13:06:16.794Z,1009.08
2019-01-14T13:07:18.051Z,1009.13
2019-01-14T13:08:37.810Z,1009.17
2019-01-14T13:09:16.785Z,1009.18
2019-01-14T13:10:37.816Z,1009.13
2019-01-14T13:11:16.839Z,1009.16
2019-01-14T13:12:16.821Z,1009.22
2019-01-14T13:13:37.863Z,1009.16
2019-01-14T13:14:17.115Z,1009.25
2019-01-14T13:15:38.027Z,1009.20
2019-01-14T13:16:16.918Z,1009.26
2019-01-14T13:17:16.892Z,1009.24
2019-01-14T13:18:37.952Z,1009.30
2019-01-14T13:19:16.934Z,1009.28
2019-01-14T13:20:37.978Z,1009.35
2019-01-14T13:21:16.943Z,1009.31
2019-01-14T13:22:16.974Z,1009.19
2019-01-14T13:23:38.023Z,1009.31
2019-01-14T13:24:16.993Z,1009.31
2019-01-14T13:25:37.991Z,1009.35